Time;durP1;ratioP1;P1;durP2;ratioP2;P2;SDS_P1;SDS_P2;PMS_P1;PMS_P2;Temp;Humidity;BMP_temperature;BMP_pressure;BME280_temperature;BME280_humidity;BME280_pressure;Samples;Min_cycle;Max_cycle;Signal;HPM_P1;HPM_P2
2023/05/31 00:01:40;;;;;;;0.20;0.00;;;;;;;12.47;100.00;102066.25;5028362;28;20475;-53
2023/05/31 00:04:07;;;;;;;0.00;0.00;;;;;;;12.47;100.00;102066.25;5038370;28;20021;-59
2023/05/31 00:06:33;;;;;;;0.32;0.00;;;;;;;12.51;100.00;102070.28;5039285;28;20040;-56
2023/05/31 00:08:58;;;;;;;0.20;0.00;;;;;;;12.66;100.00;102065.97;5044059;28;20104;-52
2023/05/31 00:11:26;;;;;;;0.57;0.10;;;;;;;12.67;100.00;102067.59;5014063;28;20124;-56
2023/05/31 00:13:51;;;;;;;0.00;0.00;;;;;;;12.57;100.00;102072.25;5036750;28;20025;-54
2023/05/31 00:16:17;;;;;;;0.00;0.00;;;;;;;12.69;100.00;102078.94;5038022;28;20052;-53
2023/05/31 00:18:42;;;;;;;0.00;0.00;;;;;;;12.62;100.00;102077.91;5031825;28;20037;-53
2023/05/31 00:21:07;;;;;;;0.47;0.10;;;;;;;12.68;100.00;102082.59;5029319;28;20033;-56
2023/05/31 00:23:33;;;;;;;0.22;0.03;;;;;;;12.46;100.00;102086.72;5041717;28;20489;-60
2023/05/31 00:25:58;;;;;;;0.15;0.00;;;;;;;12.48;100.00;102089.22;5032529;28;20489;-60
2023/05/31 00:28:23;;;;;;;0.25;0.00;;;;;;;12.45;100.00;102079.75;5040053;28;20140;-55
2023/05/31 00:30:49;;;;;;;0.03;0.00;;;;;;;12.37;100.00;102077.91;5033048;28;20092;-55
2023/05/31 00:33:14;;;;;;;1.00;0.00;;;;;;;12.42;100.00;102075.59;5040682;28;20390;-53
2023/05/31 00:35:39;;;;;;;3.00;0.00;;;;;;;12.28;100.00;102078.03;5040989;28;20155;-57
2023/05/31 00:38:06;;;;;;;0.10;0.00;;;;;;;12.27;100.00;102077.22;5041005;28;20075;-58
2023/05/31 00:40:33;;;;;;;0.40;0.00;;;;;;;12.18;100.00;102070.22;5034859;28;20506;-57
2023/05/31 00:42:58;;;;;;;0.10;0.00;;;;;;;12.18;100.00;102065.75;5032290;28;20039;-57
2023/05/31 00:45:24;;;;;;;0.00;0.00;;;;;;;12.21;100.00;102057.44;5027253;28;20041;-55
2023/05/31 00:47:50;;;;;;;0.10;0.00;;;;;;;12.18;100.00;102054.25;5032509;28;20060;-57
2023/05/31 00:50:15;;;;;;;0.20;0.00;;;;;;;12.35;100.00;102053.28;5029859;28;20025;-56
2023/05/31 00:52:44;;;;;;;1.83;0.05;;;;;;;12.42;100.00;102058.81;5031569;28;20125;-54
2023/05/31 00:55:10;;;;;;;0.70;0.00;;;;;;;12.38;100.00;102047.63;5037182;28;20061;-58
2023/05/31 00:57:36;;;;;;;0.10;0.00;;;;;;;12.37;100.00;102048.66;5033063;28;20486;-58
2023/05/31 01:00:04;;;;;;;2.05;0.00;;;;;;;12.42;100.00;102040.19;5035143;28;20376;-49
2023/05/31 01:02:32;;;;;;;0.20;0.03;;;;;;;12.38;100.00;102036.16;5040912;28;20026;-54
2023/05/31 01:04:57;;;;;;;0.13;0.00;;;;;;;12.39;100.00;102041.34;5040330;28;20025;-50
2023/05/31 01:07:22;;;;;;;0.10;0.00;;;;;;;12.30;100.00;102044.16;5037722;28;20974;-66
2023/05/31 01:09:48;;;;;;;1.75;0.00;;;;;;;12.19;100.00;102045.28;5042192;28;20329;-56
2023/05/31 01:12:24;;;;;;;0.00;0.00;;;;;;;12.26;100.00;102048.94;5031577;28;20032;-54
2023/05/31 01:15:07;;;;;;;0.10;0.00;;;;;;;12.30;100.00;102044.97;5033631;28;20032;-53
2023/05/31 01:18:00;;;;;;;0.80;0.70;;;;;;;12.25;100.00;102047.28;5041421;28;20083;-54
2023/05/31 01:20:31;;;;;;;0.00;0.00;;;;;;;12.40;100.00;102040.34;5043875;28;20128;-52
2023/05/31 01:23:37;;;;;;;0.45;0.00;;;;;;;12.26;100.00;102046.28;5033768;28;20033;-55
2023/05/31 01:26:17;;;;;;;0.10;0.00;;;;;;;12.15;100.00;102049.25;5038680;28;20513;-53
2023/05/31 01:28:45;;;;;;;0.00;0.00;;;;;;;12.38;100.00;102052.13;5044175;28;20339;-56
2023/05/31 01:31:14;;;;;;;0.65;0.00;;;;;;;12.32;100.00;102058.13;5041598;28;20021;-55
2023/05/31 01:33:41;;;;;;;0.10;0.10;;;;;;;12.29;100.00;102056.63;5038886;28;20056;-53
2023/05/31 01:36:06;;;;;;;0.10;0.00;;;;;;;12.16;100.00;102058.94;5038367;28;20029;-57
2023/05/31 01:38:31;;;;;;;2.42;0.00;;;;;;;12.15;100.00;102057.25;5035266;28;20171;-55
2023/05/31 01:40:57;;;;;;;0.00;0.00;;;;;;;12.23;100.00;102062.56;5032665;28;20068;-55
2023/05/31 01:43:25;;;;;;;0.20;0.20;;;;;;;12.08;100.00;102059.75;5019056;28;20440;-56
2023/05/31 01:45:52;;;;;;;0.00;0.00;;;;;;;12.04;100.00;102060.22;5033503;28;20025;-52
2023/05/31 01:48:17;;;;;;;0.73;0.05;;;;;;;12.16;100.00;102054.44;5040385;28;20044;-55
2023/05/31 01:50:44;;;;;;;0.00;0.00;;;;;;;12.22;100.00;102042.31;5040587;28;20033;-57
2023/05/31 01:53:10;;;;;;;0.08;0.05;;;;;;;11.98;100.00;102046.56;5035303;28;20411;-53
2023/05/31 01:55:35;;;;;;;0.10;0.00;;;;;;;12.17;100.00;102044.63;5035629;28;20044;-55
2023/05/31 01:58:01;;;;;;;0.00;0.00;;;;;;;12.27;100.00;102032.00;5037229;28;20478;-54
2023/05/31 02:00:28;;;;;;;0.00;0.00;;;;;;;12.22;100.00;102021.84;5040234;28;20544;-56
2023/05/31 02:02:53;;;;;;;0.10;0.00;;;;;;;12.20;100.00;102023.84;5037763;28;20097;-53
2023/05/31 02:05:19;;;;;;;0.57;0.57;;;;;;;12.32;100.00;102021.72;5042467;28;20034;-56
2023/05/31 02:07:46;;;;;;;1.67;0.00;;;;;;;12.32;100.00;102023.53;5044148;28;20040;-56
2023/05/31 02:10:11;;;;;;;0.22;0.22;;;;;;;12.22;100.00;102031.66;5041250;28;20120;-52
2023/05/31 02:12:37;;;;;;;0.10;0.00;;;;;;;12.31;100.00;102028.00;5045196;28;20442;-56
2023/05/31 02:15:03;;;;;;;0.00;0.00;;;;;;;12.32;100.00;102016.38;5042773;28;20017;-55
2023/05/31 02:17:32;;;;;;;0.10;0.00;;;;;;;12.40;100.00;102024.38;5040609;28;20414;-56
2023/05/31 02:19:58;;;;;;;0.08;0.00;;;;;;;12.23;100.00;102017.38;5039874;28;20291;-55
2023/05/31 02:22:24;;;;;;;0.85;0.10;;;;;;;12.25;100.00;102020.69;5043088;28;20052;-53
2023/05/31 02:24:50;;;;;;;0.40;0.00;;;;;;;12.40;100.00;102029.69;5043703;28;20041;-52
2023/05/31 02:27:15;;;;;;;0.70;0.00;;;;;;;12.42;100.00;102024.22;5040611;28;20044;-52
2023/05/31 02:29:41;;;;;;;0.03;0.03;;;;;;;12.42;100.00;102033.03;5039083;28;20051;-56
2023/05/31 02:32:06;;;;;;;0.52;0.13;;;;;;;12.35;100.00;102023.22;5042957;28;20045;-54
2023/05/31 02:34:32;;;;;;;0.10;0.00;;;;;;;12.39;100.00;102028.03;5035081;28;20127;-54
2023/05/31 02:36:57;;;;;;;0.15;0.00;;;;;;;12.50;100.00;102040.19;5030111;28;20084;-55
2023/05/31 02:39:24;;;;;;;0.73;0.00;;;;;;;12.43;100.00;102028.53;5040883;28;20124;-55
2023/05/31 02:41:50;;;;;;;1.45;0.40;;;;;;;12.43;100.00;102026.69;5038891;28;20556;-54
2023/05/31 02:44:15;;;;;;;0.30;0.00;;;;;;;12.46;100.00;102032.69;5039179;28;20041;-54
2023/05/31 02:46:40;;;;;;;1.55;0.00;;;;;;;12.39;100.00;102021.88;5035880;28;20033;-52
2023/05/31 02:49:06;;;;;;;0.03;0.03;;;;;;;12.38;100.00;102029.03;5044537;28;20035;-55
2023/05/31 02:51:32;;;;;;;0.30;0.30;;;;;;;12.34;100.00;102024.19;5037133;28;20098;-58
2023/05/31 02:53:57;;;;;;;0.20;0.03;;;;;;;12.38;100.00;102034.34;5033049;28;20030;-57
2023/05/31 02:56:23;;;;;;;0.00;0.00;;;;;;;12.23;100.00;102028.81;5039747;28;20398;-54
2023/05/31 02:58:48;;;;;;;3.10;0.00;;;;;;;11.99;100.00;102031.44;5043103;28;20140;-54
2023/05/31 03:01:14;;;;;;;0.00;0.00;;;;;;;11.61;100.00;102032.78;5037371;28;20086;-55
2023/05/31 03:03:40;;;;;;;0.00;0.00;;;;;;;11.64;100.00;102033.31;5044415;28;20028;-57
2023/05/31 03:06:06;;;;;;;0.10;0.10;;;;;;;11.91;100.00;102045.56;5029367;28;20368;-53
2023/05/31 03:08:31;;;;;;;0.90;0.10;;;;;;;11.67;100.00;102040.09;5037731;28;20036;-55
2023/05/31 03:10:57;;;;;;;0.00;0.00;;;;;;;11.51;100.00;102043.53;5029321;28;20021;-56
2023/05/31 03:13:22;;;;;;;0.10;0.08;;;;;;;11.41;100.00;102043.69;5038801;28;20045;-54
2023/05/31 03:15:48;;;;;;;0.00;0.00;;;;;;;11.50;100.00;102047.19;5039004;28;20116;-54
2023/05/31 03:18:13;;;;;;;0.30;0.00;;;;;;;11.82;100.00;102035.84;5031050;28;20035;-53
2023/05/31 03:20:38;;;;;;;0.03;0.00;;;;;;;11.84;100.00;102038.34;5035664;28;20471;-55
2023/05/31 03:23:04;;;;;;;0.32;0.00;;;;;;;11.84;100.00;102039.19;5036837;28;20048;-55
2023/05/31 03:25:30;;;;;;;0.00;0.00;;;;;;;11.88;100.00;102034.44;5035075;28;20033;-56
2023/05/31 03:27:57;;;;;;;1.75;0.10;;;;;;;11.94;100.00;102031.09;5033263;28;20695;-51
2023/05/31 03:30:22;;;;;;;0.00;0.00;;;;;;;12.00;100.00;102022.47;5033543;28;20041;-52
2023/05/31 03:32:48;;;;;;;0.00;0.00;;;;;;;12.05;100.00;102022.81;5041119;28;20114;-55
2023/05/31 03:35:13;;;;;;;1.65;0.08;;;;;;;11.96;100.00;102024.63;5038748;28;20024;-49
2023/05/31 03:37:38;;;;;;;0.00;0.00;;;;;;;11.88;100.00;102016.66;5039950;28;20638;-52
2023/05/31 03:40:04;;;;;;;0.32;0.00;;;;;;;11.73;100.00;102018.22;5031613;28;20029;-50
2023/05/31 03:42:31;;;;;;;0.00;0.00;;;;;;;11.72;100.00;102022.72;5025056;28;20121;-52
2023/05/31 03:44:57;;;;;;;0.20;0.17;;;;;;;11.48;100.00;102019.94;5031768;28;20101;-52
2023/05/31 03:47:22;;;;;;;0.00;0.00;;;;;;;11.58;100.00;102029.44;5035842;28;20021;-53
2023/05/31 03:49:47;;;;;;;0.03;0.00;;;;;;;11.54;100.00;102028.13;5035525;28;20195;-53
2023/05/31 03:52:13;;;;;;;0.65;0.00;;;;;;;11.54;100.00;102033.44;5039877;28;20053;-50
2023/05/31 03:54:39;;;;;;;0.05;0.00;;;;;;;11.49;100.00;102032.25;5044305;28;20720;-50
2023/05/31 03:57:04;;;;;;;1.55;0.30;;;;;;;11.49;100.00;102029.59;5041873;28;20034;-50
2023/05/31 03:59:30;;;;;;;0.20;0.05;;;;;;;11.58;100.00;102024.13;5037316;28;20380;-51
2023/05/31 04:01:55;;;;;;;2.05;0.25;;;;;;;11.59;100.00;102030.31;5036706;28;20032;-50
2023/05/31 04:04:20;;;;;;;0.00;0.00;;;;;;;11.55;100.00;102029.78;5032036;28;20074;-55
2023/05/31 04:06:46;;;;;;;0.00;0.00;;;;;;;11.63;100.00;102036.13;5032440;28;20065;-53
2023/05/31 04:09:11;;;;;;;0.10;0.00;;;;;;;11.69;100.00;102030.16;5038006;28;20079;-51
2023/05/31 04:11:37;;;;;;;6.15;0.13;;;;;;;11.64;100.00;102035.13;5031105;28;20033;-50
2023/05/31 04:14:02;;;;;;;0.52;0.00;;;;;;;11.61;100.00;102033.63;5035074;28;20029;-54
2023/05/31 04:16:28;;;;;;;0.80;0.08;;;;;;;11.53;100.00;102034.41;5035366;28;20066;-52
2023/05/31 04:18:53;;;;;;;0.20;0.00;;;;;;;11.42;100.00;102036.53;5033268;28;20502;-51
2023/05/31 04:21:18;;;;;;;0.00;0.00;;;;;;;11.38;100.00;102040.47;5032163;28;20041;-50
2023/05/31 04:23:43;;;;;;;1.70;0.10;;;;;;;11.35;100.00;102053.06;5034475;28;20052;-54
2023/05/31 04:26:16;;;;;;;0.00;0.00;;;;;;;11.37;100.00;102046.78;5025839;28;20128;-54
2023/05/31 04:28:42;;;;;;;0.55;0.55;;;;;;;11.42;100.00;102053.28;5037535;28;20390;-51
2023/05/31 04:31:07;;;;;;;0.00;0.00;;;;;;;11.32;100.00;102049.91;5035815;28;20022;-54
2023/05/31 04:33:33;;;;;;;0.00;0.00;;;;;;;11.33;100.00;102056.88;5038957;28;20089;-50
2023/05/31 04:35:58;;;;;;;0.00;0.00;;;;;;;11.40;100.00;102062.41;5034886;28;20063;-54
2023/05/31 04:38:27;;;;;;;0.10;0.00;;;;;;;11.47;100.00;102058.13;5031978;28;20063;-50
2023/05/31 04:40:54;;;;;;;0.43;0.00;;;;;;;11.43;100.00;102062.91;5033279;28;20128;-55
2023/05/31 04:43:19;;;;;;;0.10;0.00;;;;;;;11.47;100.00;102061.63;5031963;28;20036;-54
2023/05/31 04:45:45;;;;;;;0.00;0.00;;;;;;;11.50;100.00;102065.78;5038808;28;20071;-52
2023/05/31 04:48:11;;;;;;;0.00;0.00;;;;;;;11.53;100.00;102066.28;5031120;28;20041;-51
2023/05/31 04:50:37;;;;;;;0.47;0.00;;;;;;;11.55;100.00;102069.63;5034746;28;20445;-51
2023/05/31 04:53:03;;;;;;;0.60;0.55;;;;;;;11.56;100.00;102066.00;5033037;28;20418;-50
2023/05/31 04:55:28;;;;;;;0.00;0.00;;;;;;;11.55;100.00;102068.78;5035322;28;20501;-51
2023/05/31 04:57:54;;;;;;;1.25;0.00;;;;;;;11.57;100.00;102070.31;5035721;28;20397;-50
2023/05/31 05:00:19;;;;;;;0.00;0.00;;;;;;;11.68;100.00;102061.22;5033731;28;20039;-51
2023/05/31 05:02:45;;;;;;;0.00;0.00;;;;;;;11.80;100.00;102064.44;5035539;28;20038;-52
2023/05/31 05:05:11;;;;;;;0.00;0.00;;;;;;;11.81;100.00;102059.94;5034117;28;20178;-50
2023/05/31 05:07:37;;;;;;;0.10;0.10;;;;;;;11.81;100.00;102059.94;5038227;28;20538;-54
2023/05/31 05:10:02;;;;;;;0.57;0.00;;;;;;;11.76;100.00;102057.75;5034766;28;20033;-54
2023/05/31 05:12:28;;;;;;;0.00;0.00;;;;;;;11.81;100.00;102062.59;5038209;28;20036;-52
2023/05/31 05:14:54;;;;;;;0.75;0.00;;;;;;;11.81;100.00;102063.44;5030064;28;20056;-54
2023/05/31 05:17:20;;;;;;;0.20;0.00;;;;;;;11.82;100.00;102054.44;5038866;28;20375;-49
2023/05/31 05:19:45;;;;;;;0.35;0.20;;;;;;;11.76;100.00;102063.91;5035274;28;20029;-52
2023/05/31 05:22:11;;;;;;;0.13;0.03;;;;;;;11.75;100.00;102059.59;5040519;28;20026;-50
2023/05/31 05:24:36;;;;;;;0.00;0.00;;;;;;;11.75;100.00;102069.41;5036869;28;20470;-52
2023/05/31 05:27:02;;;;;;;0.40;0.00;;;;;;;11.76;100.00;102074.53;5034089;28;20029;-56
2023/05/31 05:29:27;;;;;;;0.00;0.00;;;;;;;11.87;100.00;102075.25;5027861;28;20033;-54
2023/05/31 05:31:53;;;;;;;3.22;0.00;;;;;;;11.78;100.00;102061.09;5034945;28;20025;-55
2023/05/31 05:34:20;;;;;;;0.15;0.00;;;;;;;11.87;100.00;102076.09;5031836;28;20044;-51
2023/05/31 05:36:45;;;;;;;0.10;0.00;;;;;;;12.00;100.00;102071.19;5039544;28;20021;-55
2023/05/31 05:39:11;;;;;;;0.10;0.00;;;;;;;12.07;100.00;102066.03;5042476;28;20422;-54
2023/05/31 05:41:36;;;;;;;0.20;0.00;;;;;;;12.12;100.00;102068.22;5037824;28;20020;-53
2023/05/31 05:44:02;;;;;;;0.60;0.00;;;;;;;12.04;100.00;102068.19;5041728;28;20064;-52
2023/05/31 05:46:28;;;;;;;0.00;0.00;;;;;;;12.07;100.00;102070.53;5038312;28;20470;-56
2023/05/31 05:48:53;;;;;;;0.00;0.00;;;;;;;12.03;100.00;102069.16;5037418;28;20586;-55
2023/05/31 05:51:18;;;;;;;0.00;0.00;;;;;;;12.07;100.00;102073.19;5042110;28;20068;-54
2023/05/31 05:53:44;;;;;;;0.20;0.00;;;;;;;12.23;100.00;102074.03;5038938;28;20028;-57
2023/05/31 05:56:11;;;;;;;2.20;0.45;;;;;;;12.30;100.00;102073.41;5038233;28;20060;-58
2023/05/31 05:58:36;;;;;;;0.90;0.00;;;;;;;12.25;100.00;102068.56;5031750;28;20032;-57
2023/05/31 06:01:02;;;;;;;1.75;0.00;;;;;;;12.46;100.00;102062.78;5038528;28;20033;-56
2023/05/31 06:03:27;;;;;;;0.50;0.10;;;;;;;12.54;100.00;102067.28;5041579;28;20029;-57
2023/05/31 06:05:53;;;;;;;0.90;0.08;;;;;;;12.62;100.00;102062.81;5038300;28;20032;-53
2023/05/31 06:08:18;;;;;;;0.00;0.00;;;;;;;12.54;100.00;102067.28;5036394;28;20120;-55
2023/05/31 06:10:43;;;;;;;0.10;0.00;;;;;;;12.40;100.00;102069.59;5035361;28;20370;-52
2023/05/31 06:13:09;;;;;;;2.25;0.15;;;;;;;12.23;100.00;102078.53;5035369;28;20028;-53
2023/05/31 06:15:34;;;;;;;0.00;0.00;;;;;;;12.18;100.00;102078.19;5041491;28;20505;-52
2023/05/31 06:18:00;;;;;;;0.08;0.00;;;;;;;12.33;100.00;102071.25;5033986;28;20397;-52
2023/05/31 06:20:26;;;;;;;0.80;0.10;;;;;;;12.37;100.00;102072.59;5040281;28;20338;-53
2023/05/31 06:22:51;;;;;;;0.45;0.00;;;;;;;12.50;100.00;102077.44;5040563;28;20371;-52
2023/05/31 06:25:17;;;;;;;0.00;0.00;;;;;;;12.49;100.00;102069.59;5033035;28;20029;-61
2023/05/31 06:27:45;;;;;;;1.95;0.00;;;;;;;12.59;100.00;102072.94;5038784;28;20033;-61
2023/05/31 06:30:11;;;;;;;0.10;0.10;;;;;;;12.79;100.00;102066.28;5035037;28;20406;-60
2023/05/31 06:32:37;;;;;;;0.00;0.00;;;;;;;12.98;100.00;102065.09;5038108;28;20032;-57
2023/05/31 06:35:02;;;;;;;0.88;0.45;;;;;;;13.00;100.00;102049.78;5040285;28;20386;-56
2023/05/31 06:37:27;;;;;;;0.57;0.00;;;;;;;12.99;100.00;102047.31;5021314;28;20396;-50
2023/05/31 06:39:54;;;;;;;1.15;0.00;;;;;;;13.17;100.00;102053.28;5036608;28;20037;-52
2023/05/31 06:42:21;;;;;;;0.00;0.00;;;;;;;13.26;100.00;102041.59;5027251;28;20418;-51
2023/05/31 06:44:47;;;;;;;0.40;0.00;;;;;;;13.33;100.00;102052.44;5028406;28;20080;-60
2023/05/31 06:47:13;;;;;;;0.10;0.00;;;;;;;13.36;100.00;102045.91;5037419;28;20037;-58
2023/05/31 06:49:38;;;;;;;0.00;0.00;;;;;;;13.31;100.00;102044.59;5038756;28;20035;-50
2023/05/31 06:52:04;;;;;;;0.20;0.10;;;;;;;13.20;100.00;102042.28;5044413;28;20128;-58
2023/05/31 06:54:34;;;;;;;0.10;0.00;;;;;;;13.21;100.00;102040.44;5040362;28;20083;-65
2023/05/31 06:56:59;;;;;;;0.00;0.00;;;;;;;13.20;100.00;102036.94;5030218;28;20112;-54
2023/05/31 06:59:24;;;;;;;5.20;0.00;;;;;;;13.17;100.00;102029.31;5028836;28;20039;-61
2023/05/31 07:01:52;;;;;;;0.75;0.00;;;;;;;13.23;100.00;102035.78;5030044;28;20113;-55
2023/05/31 07:04:17;;;;;;;2.78;0.00;;;;;;;13.36;100.00;102030.75;5036515;28;20032;-62
2023/05/31 07:06:42;;;;;;;0.03;0.00;;;;;;;13.45;100.00;102031.56;5019668;28;20032;-61
2023/05/31 07:09:08;;;;;;;0.00;0.00;;;;;;;13.51;100.00;102022.88;5036247;28;20104;-61
2023/05/31 07:11:33;;;;;;;0.00;0.00;;;;;;;13.49;100.00;102025.72;5034418;28;20108;-57
2023/05/31 07:14:03;;;;;;;0.35;0.00;;;;;;;13.75;100.00;102027.28;5038451;28;20026;-58
2023/05/31 07:16:28;;;;;;;0.90;0.57;;;;;;;13.96;100.00;102030.19;5044515;28;20090;-53
2023/05/31 07:18:55;;;;;;;2.13;0.00;;;;;;;13.93;100.00;102027.00;5040574;28;20055;-59
2023/05/31 07:21:20;;;;;;;0.55;0.55;;;;;;;14.08;100.00;102040.44;5045624;28;20111;-63
2023/05/31 07:23:46;;;;;;;0.00;0.00;;;;;;;14.42;100.00;102024.00;5038587;28;20135;-62
2023/05/31 07:26:11;;;;;;;0.00;0.00;;;;;;;14.58;100.00;102021.22;5033845;28;20040;-62
2023/05/31 07:28:36;;;;;;;0.20;0.10;;;;;;;14.90;100.00;102019.31;5041482;28;20031;-64
2023/05/31 07:31:02;;;;;;;0.38;0.00;;;;;;;14.57;100.00;102013.44;5041329;28;20867;-60
2023/05/31 07:33:27;;;;;;;0.00;0.00;;;;;;;14.61;100.00;102026.25;5031234;28;20552;-63
2023/05/31 07:35:53;;;;;;;0.00;0.00;;;;;;;14.52;100.00;102015.78;5024953;28;20108;-63
2023/05/31 07:38:18;;;;;;;0.00;0.00;;;;;;;14.45;100.00;102020.97;5037712;28;20395;-59
2023/05/31 07:40:43;;;;;;;0.10;0.00;;;;;;;14.29;100.00;102018.44;5039678;28;20048;-61
2023/05/31 07:43:10;;;;;;;0.20;0.00;;;;;;;13.97;100.00;102020.34;5035142;28;20108;-55
2023/05/31 07:45:36;;;;;;;0.43;0.00;;;;;;;13.93;100.00;102021.69;5032932;28;20021;-65
2023/05/31 07:48:01;;;;;;;0.10;0.00;;;;;;;13.94;100.00;102026.03;5036851;28;20029;-64
2023/05/31 07:50:26;;;;;;;0.90;0.00;;;;;;;14.09;100.00;102010.06;5040110;28;20040;-57
2023/05/31 07:52:52;;;;;;;0.00;0.00;;;;;;;14.26;100.00;102019.63;5034278;28;20072;-61
2023/05/31 07:55:17;;;;;;;2.30;0.00;;;;;;;14.42;100.00;102024.00;5028704;28;21100;-65
2023/05/31 07:57:43;;;;;;;0.00;0.00;;;;;;;14.59;100.00;102022.09;5029230;28;20064;-63
2023/05/31 08:00:13;;;;;;;0.00;0.00;;;;;;;14.58;100.00;102018.56;5033348;28;20116;-63
2023/05/31 08:02:38;;;;;;;0.15;0.00;;;;;;;14.46;100.00;102017.31;5020896;28;20034;-64
2023/05/31 08:05:04;;;;;;;0.22;0.00;;;;;;;14.44;100.00;102014.00;5034471;28;20094;-59
2023/05/31 08:07:30;;;;;;;0.00;0.00;;;;;;;14.32;100.00;102012.75;5032568;28;20328;-62
2023/05/31 08:09:55;;;;;;;1.35;0.10;;;;;;;14.19;100.00;102014.16;5034872;28;20035;-62
2023/05/31 08:12:21;;;;;;;0.25;0.10;;;;;;;14.27;100.00;102020.47;5042162;28;20029;-62
2023/05/31 08:14:46;;;;;;;1.00;0.10;;;;;;;14.28;100.00;102009.63;5041700;28;20479;-63
2023/05/31 08:17:11;;;;;;;0.75;0.40;;;;;;;14.29;100.00;102016.59;5011259;28;20048;-62
2023/05/31 08:19:37;;;;;;;0.47;0.00;;;;;;;14.21;100.00;102007.84;5016091;28;20060;-63
2023/05/31 08:22:02;;;;;;;1.70;0.10;;;;;;;14.25;100.00;102011.78;5012705;28;20571;-63
2023/05/31 08:24:28;;;;;;;0.00;0.00;;;;;;;14.09;100.00;102008.25;5020561;28;20403;-66
2023/05/31 08:26:53;;;;;;;0.10;0.10;;;;;;;14.15;100.00;102010.22;5015198;28;20033;-64
2023/05/31 08:29:18;;;;;;;0.08;0.00;;;;;;;14.19;100.00;102005.34;5013581;28;20049;-52
2023/05/31 08:31:44;;;;;;;0.20;0.20;;;;;;;14.17;100.00;102008.19;5010185;28;20548;-61
2023/05/31 08:34:09;;;;;;;1.65;0.22;;;;;;;14.31;100.00;102008.44;5013169;28;20037;-58
2023/05/31 08:36:35;;;;;;;0.10;0.00;;;;;;;14.19;100.00;102010.69;5015362;28;20077;-56
2023/05/31 08:39:01;;;;;;;0.13;0.10;;;;;;;14.11;100.00;102014.22;5022636;28;20037;-62
2023/05/31 08:41:30;;;;;;;4.90;0.08;;;;;;;14.25;100.00;102017.13;5016208;28;20044;-64
2023/05/31 08:43:56;;;;;;;0.52;0.50;;;;;;;14.42;100.00;102009.84;5025260;28;20034;-63
2023/05/31 08:46:21;;;;;;;0.35;0.10;;;;;;;14.57;100.00;102000.91;5017266;28;20441;-61
2023/05/31 08:48:56;;;;;;;1.65;0.30;;;;;;;14.63;100.00;102001.19;5019027;28;20036;-61
2023/05/31 08:51:24;;;;;;;3.00;0.17;;;;;;;14.65;100.00;102002.66;5002729;28;20052;-54
2023/05/31 08:53:51;;;;;;;0.30;0.30;;;;;;;14.71;100.00;101993.09;5030421;28;20441;-52
2023/05/31 08:56:18;;;;;;;0.65;0.20;;;;;;;14.91;100.00;101993.41;5031505;28;20037;-62
2023/05/31 08:58:50;;;;;;;2.17;0.22;;;;;;;15.20;100.00;101993.41;5033284;28;20033;-56
2023/05/31 09:01:18;;;;;;;0.17;0.17;;;;;;;15.05;100.00;101996.09;5033688;28;20527;-62
2023/05/31 09:03:44;;;;;;;0.77;0.10;;;;;;;14.97;100.00;101990.00;5026899;28;20090;-63
2023/05/31 09:06:09;;;;;;;1.48;0.55;;;;;;;14.79;100.00;101993.03;5038547;28;21027;-63
2023/05/31 09:08:34;;;;;;;1.58;0.15;;;;;;;15.07;100.00;101993.22;5033733;28;20033;-62
2023/05/31 09:11:01;;;;;;;1.40;0.45;;;;;;;15.23;100.00;101990.41;5033097;28;20033;-63
2023/05/31 09:13:26;;;;;;;1.75;0.30;;;;;;;15.25;100.00;101992.88;5037174;28;20021;-64
2023/05/31 09:15:53;;;;;;;1.55;0.52;;;;;;;15.25;100.00;101985.66;5034840;28;20037;-63
2023/05/31 09:18:20;;;;;;;0.45;0.22;;;;;;;15.02;100.00;101976.94;5030224;28;20109;-63
2023/05/31 09:20:47;;;;;;;0.65;0.30;;;;;;;15.00;100.00;101977.13;5028880;28;20051;-63
2023/05/31 09:23:13;;;;;;;2.75;1.10;;;;;;;14.96;100.00;101972.34;5037144;28;20417;-63
2023/05/31 09:25:47;;;;;;;0.70;0.47;;;;;;;15.45;100.00;101969.91;5035192;28;20498;-54
2023/05/31 09:28:13;;;;;;;1.73;1.20;;;;;;;15.80;100.00;101963.94;5043175;28;20025;-64
2023/05/31 09:30:38;;;;;;;2.13;0.57;;;;;;;16.21;100.00;101966.84;5041997;28;20481;-63
2023/05/31 09:33:04;;;;;;;2.50;0.65;;;;;;;16.36;100.00;101978.28;5041651;28;20497;-60
2023/05/31 09:35:29;;;;;;;3.22;0.60;;;;;;;16.27;100.00;101971.41;5034750;28;20709;-61
2023/05/31 09:37:56;;;;;;;2.55;0.55;;;;;;;15.86;100.00;101976.56;5035072;28;20021;-62
2023/05/31 09:40:26;;;;;;;1.98;0.75;;;;;;;15.79;100.00;101975.66;5041480;28;20047;-60
2023/05/31 09:42:53;;;;;;;6.85;1.45;;;;;;;15.87;100.00;101972.88;5043205;28;20032;-62
2023/05/31 09:45:20;;;;;;;1.13;0.65;;;;;;;15.84;100.00;101968.72;5037409;28;20102;-63
2023/05/31 09:47:47;;;;;;;4.85;1.17;;;;;;;16.10;100.00;101962.00;5036089;28;20021;-57
2023/05/31 09:50:20;;;;;;;2.10;0.68;;;;;;;16.34;100.00;101956.25;5027919;28;20544;-63
2023/05/31 09:52:47;;;;;;;1.40;0.60;;;;;;;16.71;100.00;101964.97;5040777;28;20045;-63
2023/05/31 09:55:16;;;;;;;2.72;0.52;;;;;;;16.63;100.00;101959.75;5035017;28;20421;-65
2023/05/31 09:57:44;;;;;;;3.63;0.93;;;;;;;16.71;100.00;101954.25;5034526;28;20048;-58
2023/05/31 10:00:20;;;;;;;0.95;0.60;;;;;;;16.75;100.00;101952.84;5024196;28;20032;-61
2023/05/31 10:02:48;;;;;;;2.05;0.60;;;;;;;16.45;100.00;101965.59;5035878;28;20489;-63
2023/05/31 10:05:14;;;;;;;4.55;1.02;;;;;;;16.33;100.00;101959.94;5035853;28;20025;-62
2023/05/31 10:07:41;;;;;;;1.52;0.60;;;;;;;16.25;100.00;101961.91;5035430;28;20532;-63
2023/05/31 10:10:08;;;;;;;4.05;0.73;;;;;;;16.38;100.00;101953.19;5013523;28;21472;-57
2023/05/31 10:12:49;;;;;;;1.98;1.00;;;;;;;16.26;100.00;101956.38;5017017;28;20025;-59
2023/05/31 10:15:19;;;;;;;2.17;0.88;;;;;;;16.05;100.00;101961.72;4994546;28;20037;-60
2023/05/31 10:17:59;;;;;;;1.88;1.30;;;;;;;16.39;100.00;101954.81;5016683;28;20065;-58
2023/05/31 10:20:28;;;;;;;4.30;0.60;;;;;;;16.88;100.00;101956.63;5013902;28;20121;-56
2023/05/31 10:22:57;;;;;;;5.78;0.77;;;;;;;17.09;100.00;101961.94;5011929;28;20034;-59
2023/05/31 10:25:29;;;;;;;4.40;1.00;;;;;;;17.12;100.00;101956.19;5015522;28;20042;-57
2023/05/31 10:27:59;;;;;;;2.38;0.60;;;;;;;17.04;100.00;101959.03;5018169;28;20091;-59
2023/05/31 10:30:30;;;;;;;3.22;1.30;;;;;;;17.01;100.00;101959.41;5015444;28;20031;-56
2023/05/31 10:33:17;;;;;;;3.13;1.45;;;;;;;17.16;100.00;101956.59;5026423;28;20423;-63
2023/05/31 10:35:44;;;;;;;1.58;0.95;;;;;;;17.31;100.00;101959.16;5023788;28;20044;-62
2023/05/31 10:38:10;;;;;;;6.82;2.08;;;;;;;17.54;100.00;101956.13;5013317;28;20057;-63
2023/05/31 10:40:47;;;;;;;3.63;1.55;;;;;;;17.58;100.00;101950.19;5016021;28;20025;-61
2023/05/31 10:43:32;;;;;;;7.53;1.20;;;;;;;17.57;100.00;101947.69;5019430;28;20454;-61
2023/05/31 10:46:03;;;;;;;1.88;0.75;;;;;;;17.53;100.00;101949.09;5026877;28;20509;-60
2023/05/31 10:48:45;;;;;;;3.67;0.90;;;;;;;17.98;100.00;101931.50;5026000;28;20025;-59
2023/05/31 10:51:12;;;;;;;1.77;0.82;;;;;;;18.10;100.00;101934.41;5019052;28;20069;-61
2023/05/31 10:53:38;;;;;;;1.70;0.80;;;;;;;18.42;100.00;101932.75;5019851;28;20041;-63
2023/05/31 10:56:13;;;;;;;7.95;1.45;;;;;;;18.58;100.00;101930.66;5022154;28;20041;-61
2023/05/31 10:58:47;;;;;;;1.92;1.38;;;;;;;18.59;100.00;101933.16;5017617;28;20060;-62
2023/05/31 11:01:14;;;;;;;5.68;1.00;;;;;;;18.38;100.00;101928.84;5020586;28;20040;-61
2023/05/31 11:03:48;;;;;;;2.15;1.50;;;;;;;18.28;100.00;101931.13;5016359;28;20052;-59
2023/05/31 11:06:17;;;;;;;3.22;0.75;;;;;;;18.35;100.00;101934.59;5027226;28;20378;-61
2023/05/31 11:09:08;;;;;;;1.92;0.63;;;;;;;18.52;100.00;101932.31;5028398;28;20037;-60
2023/05/31 11:11:33;;;;;;;4.32;1.90;;;;;;;18.58;100.00;101936.03;5027584;28;20040;-60
2023/05/31 11:14:06;;;;;;;1.95;0.70;;;;;;;18.47;100.00;101932.94;5021300;28;20037;-62
2023/05/31 11:16:35;;;;;;;5.45;1.73;;;;;;;18.31;100.00;101941.44;5024402;28;20040;-64